Date,TemperatureHighF,TemperatureAvgF,TemperatureLowF,DewpointHighF,DewpointAvgF,DewpointLowF,HumidityHigh,HumidityAvg,HumidityLow,PressureMaxIn,PressureMinIn,WindSpeedMaxMPH,WindSpeedAvgMPH,GustSpeedMaxMPH,PrecipitationSumIn
2013-5-1,43,33,21,-100,-100,-100,0,0,100,0.00,40.00,0,-999,0,0.01
2013-5-2,56,38,24,-100,-100,-100,0,0,100,0.00,40.00,0,-999,0,0.00
2013-5-3,62,47,30,-100,-100,-100,0,0,100,0.00,40.00,0,-999,0,0.00
2013-5-4,55,46,36,-100,-100,-100,0,0,100,0.00,40.00,0,-999,0,0.00
2013-5-5,62,48,33,-100,-100,-100,0,0,100,0.00,40.00,0,-999,0,0.00
2013-5-6,62,49,36,-100,-100,-100,0,0,100,0.00,40.00,0,-999,0,0.00
2013-5-7,52,45,38,-100,-100,-100,0,0,100,0.00,40.00,0,-999,0,0.01
2013-5-8,60,44,34,-100,-100,-100,0,0,100,0.00,40.00,0,-999,0,0.01
2013-5-9,66,48,37,-100,-100,-100,0,0,100,0.00,40.00,0,-999,0,0.01
2013-5-10,68,51,37,-100,-100,-100,0,0,100,0.00,40.00,0,-999,0,0.00
2013-5-11,70,55,41,-100,-100,-100,0,0,100,0.00,40.00,0,-999,0,0.00
2013-5-12,75,58,44,-100,-100,-100,0,0,100,0.00,40.00,0,-999,0,0.00
2013-5-13,77,62,48,-100,-100,-100,0,0,100,0.00,40.00,0,-999,0,0.00
2013-5-14,68,58,48,-100,-100,-100,0,0,100,0.00,40.00,0,-999,0,0.00
2013-5-15,69,58,45,-100,-100,-100,0,0,100,0.00,40.00,0,-999,0,0.00
2013-5-16,62,52,44,-100,-100,-100,0,0,100,0.00,40.00,0,-999,0,0.00
2013-5-17,48,45,41,-100,-100,-100,0,0,100,0.00,40.00,0,-999,0,0.01
2013-5-18,55,44,41,-100,-100,-100,0,0,100,0.00,40.00,0,-999,0,0.02
2013-5-19,48,40,33,-100,-100,-100,0,0,100,0.00,40.00,0,-999,0,0.01
2013-5-20,59,46,40,-100,-100,-100,0,0,100,0.00,40.00,0,-999,0,0.01
2013-5-21,62,50,37,-100,-100,-100,0,0,100,0.00,40.00,0,-999,0,0.00
2013-5-22,51,44,36,-100,-100,-100,0,0,100,0.00,40.00,0,-999,0,0.00
2013-5-23,57,42,30,-100,-100,-100,0,0,100,0.00,40.00,0,-999,0,0.00
2013-5-24,59,42,28,-100,-100,-100,0,0,100,0.00,40.00,0,-999,0,0.00
2013-5-25,62,48,36,-100,-100,-100,0,0,100,0.00,40.00,0,-999,0,0.00
2013-5-26,63,50,38,-100,-100,-100,0,0,100,0.00,40.00,0,-999,0,0.00
2013-5-27,58,47,39,-100,-100,-100,0,0,100,0.00,40.00,0,-999,0,0.00
2013-5-28,46,42,37,-100,-100,-100,0,0,100,0.00,40.00,0,-999,0,0.02
2013-5-29,55,46,40,-100,-100,-100,0,0,100,0.00,40.00,0,-999,0,0.01
2013-5-30,55,45,36,-100,-100,-100,0,0,100,0.00,40.00,0,-999,0,0.00
2013-5-31,58,46,35,-100,-100,-100,0,0,100,0.00,40.00,0,-999,0,0.00